首页
METAR-TAF:

METAR-TAF

机场 :

Seneca, 俄勒冈州, 美国

纬度: 44-08-18N, 经度: 118-58-54W, 海拔: 1422米

当前天气观测

该预报发布于20分钟前的05:35 UTC
风速22节,风向,有时为31节阵风
温度 5°C
湿度 70%
气压 1009 hPa
能見度: 16.1公里
多云层高于4000英尺
阴天层高于4800英尺

METAR: KGCD 120535Z AUTO 17022G31KT 10SM BKN040 OVC048 05/00 A2979 RMK AO2 T00510004

时间: 21:55 (05:55 UTC)


TAF: 丢失

超过4000个机场的气象观测和天气预报(METAR&TAF报告)。

可查询的气象台以黄色和红色小点在地图上表示。

将鼠标移到小点上方,可查看气象台名称。

然后点击查看天气观测和预报。

如需切换地图:点击带黑十字的绿色按钮放大地图;点击带横线的绿色按钮缩小地图;或者点击绿色箭头查看邻近地区的地图。


METAR-TAF: